Terminal Aerodrome Forecast
Issued by NWS Blacksburg, VA

Current Version | Previous Version | Graphics & Text | Print | Product List | Glossary On
Versions: 1 2 3 4 5 6 7 8 9 10 11 12 13 14 15 16 17 18 19 20 21 22 23 24
000
FTUS41 KRNK 270520
TAFBLF
TAF
KBLF 270520Z 2706/2806 20006KT P6SM VCSH BKN060
      TEMPO 2708/2709 4SM -SHRA OVC035
     FM271200 21004KT P6SM BKN040
     FM271900 25008KT P6SM VCSH OVC045
     FM272300 22004KT P6SM BKN070=

USA.gov is the U.S. government's official web portal to all federal, state and local government web resources and services.